Monday, August 29, 2016
18:01 UTC
  |  Log In   |  Register Free
Airport Search:

Bishop International Airport
(KFNT)

FAA data valid effective Jul 21 2016 - Sep 15 2016 (unless otherwise noted).

 
 
 
 
 
 
 
 
 
 
 
 
 
 
Current Aviation Weather for KFNT

Weather Summary


The most recent METAR observation for FNT was updated at: 13:01 UTC
METAR for FNT is not available. Closest METAR is for
METAR

METAR KFNT 291753Z 00000KT 10SM SCT029 28/18 A3028 RMK AO2 SLP250 T02830183 10283 20200 58005

METAR KFNT 291653Z VRB04KT 10SM SCT029 26/19 A3030

METAR KFNT 291646Z 00000KT 10SM SCT027 SCT032 27/18 A3030 RMK AO2 T02670183

METAR KFNT 291553Z 14006KT 10SM BKN023 26/19 A3030 RMK AO2 SLP257 T02610189

METAR KFNT 291531Z 11003KT 10SM SCT018 26/19 A3030 RMK AO2 T02560194

METAR KFNT 291506Z VRB04KT 10SM BKN015 25/19 A3030 RMK AO2 T02500194

METAR KFNT 251838Z 32014KT 10SM SCT026 BKN036 OVC090 27/22 A2996 RMK AO2 WSHFT1818 T02720217 $

METAR KCFS 291755Z 00000KT 10SM SCT038 26/18 A3028 RMK AO2 T02580181 10261 20178

METAR KD95 291753Z 00000KT 10SM CLR 26/15 A3029 RMK AO2 T02580153 10262 20183

METAR KHYX 291754Z 00000KT 7SM CLR 26/17 A3028 RMK AO2

TAF for FNT is not available.
TAF

KFNT - TAF KFNT 291720Z 2918/3018 10005KT P6SM SCT025

KFNT - FM291900 14005KT P6SM SKC =

KPTK - TAF KPTK 291720Z 2918/3018 VRB05KT P6SM SKC =

GlobalAir.com is loading additional information.
 Current Weather at FNT
79.0 F° (26.1 C°)

Variable winds at 4.6 mph
Pressure:
30.30 in
Humidity:
65%
Wind:
Variable at 4.6 mph
Dew Point:
66.0 F° (18.9 C°)
Visibility:
10.00 mi
FNT NOAA Radar




Find All Airport Services Find A Hotel Find A Rental Car Find A Golf Course Find A Restaurant $100 Hamburger



Airport Weather Forecast for KFNT

Translated METAR for KFNT (1753 UTC)
METAR:
KFNT 291753Z Bishop International, Flint, MI (KFNT). Aug 29, 1753Z. Wind is Calm, 10 statute miles visibility, Scattered Clouds at 2,900 feet, Temperature 28°C, Dewpoint 18°C, Altimeter is 30.28. Remarks: automated station with precipitation discriminator sea level pressure 1025.0 hectopascals hourly temp 28.3°C dewpoint 18.3°C 6-hour max temp 28.3°C 6-hour min temp 20.0°C 3-hour atmospheric pressure steady or increasing, then decreasing; or decreasing then decreasing more rapidly by 0.5 hectopascals
Conditions at:
KFNT (Bishop Intl, MI) observed 1753 UTC 29 August 2016
Temperature:
79.0 F° (26.1 C°)
Dewpoint:
not reported - refer to area weather report
Pressure:
30.30 Hg
Winds:
not reported
Visibility:
10.00
Ceiling:
at least 12,000 feet AGL
Clouds:
not reported - refer to area weather report
Remarks:

Translated TAF for TAF for FNT is not available. Refer to local area forecast.
FBO's on the Field
FBO Company Facility Photos Services Transportation Aviation Fuel Prices: Prices include tax
Catering Weather Repair Courtesy Rental Type 100LL JetA JetA+ MOGAS 8087
 
Avflight Flint

This FBO has not yet been rated
FS:Avfuel
Last Updated: Aug-28
Login to update fuel prices
SS:
Contact Avflight FlintMore FBO Information
 
Add another FBO Facility Photos Catering Weather Repair Courtesy Rental Type 100LL JetA JetA+ MOGAS 8087
Services Transportation Aviation Fuel Prices: Prices include tax


model-print
model-print
model-print
model-print